Swiss, WV (26690)

9:25 AM EST on February 10, 2016 (GMT -0500)
Butch | | Change Station
CLOSE
Current Station
Personal Weather Station
Location: Gauley Bridge, WV
Elevation: 804 ft
Nearby Weather Stations
Active Advisory: Winter Weather Advisory Active Notice: Local Storm Report

Elev 804 ft 38.17 °N, 81.19 °W | Updated 33 seconds ago

Snow
Snow
19.6 °F
Feels Like 20 °F
N
0.0
Wind Variable Wind from East
Gusts 11.0 mph

Today
High -- | Low -- °F
--% Chance of Precip.
Yesterday
High -- | Low -- °F
Precip. -- in
Pressure 30.00 in
Visibility 4.0 miles
Clouds Scattered Clouds 1300 ft
Mostly Cloudy 3100 ft
Overcast 4300 ft
Windchill 20 °F
Dew Point 6 °F
Humidity 55%
Rainfall 0.00 in
Snow Depth Not available.
7:20 AM 5:56 PM
Waxing Crescent, 5% visible
METAR KCRW 101354Z 25005KT 4SM -SN SCT013 BKN031 OVC043 M08/M12 A2996 RMK AO2 SLP159 P0000 T10781122
Pressure 30.00 in
Visibility 4.0 miles
Clouds Scattered Clouds 1300 ft
Mostly Cloudy 3100 ft
Overcast 4300 ft
Windchill 20 °F
Dew Point 6 °F
Humidity 55%
Rainfall 0.00 in
Snow Depth Not available.
7:20 AM 5:56 PM
Waxing Crescent, 5% visible
METAR KCRW 101354Z 25005KT 4SM -SN SCT013 BKN031 OVC043 M08/M12 A2996 RMK AO2 SLP159 P0000 T10781122

10-Day Weather Forecast

Almanac

Astronomy

Feb. 10, 2016 Rise Set
Actual Time
Civil Twilight
Nautical Twilight
Astronomical Twilight
Moon
Length of Visible Light
Length of Day
Tomorrow will be .
, % of the Moon is Illuminated

Today's Extremes

State Highs State Lows

Community

WunderPhotos

Upload Photos

1,891,850 photos uploaded!

WunderBlog® & News

Nearby

Air Quality

  Air Quality AQ Index Pollutant
Not available.

Snow Depth

Station Depth Elevation

Earthquake Activity

City Distance Mag. Time & Date
Minimum magnitude displayed is 2.5.

Coastal Water Temperatures

Place Temperature

Stations

Nearby Weather Stations

Station Location Temp. Windchill Dew Point Humidity Wind Precip. Elev Updated Type
                   

Watches & Warnings

Winter Weather Advisory
Issued: 4:38 AM EST Feb. 10, 2016 – National Weather Service

... Winter Weather Advisory now in effect until 6 am EST
Thursday...

* hazard types... snow showers of varying intensity.

* Total snow accumulations from Monday night through tonight... 6
to 12 inches.

* Temperatures... 9 to 20 above.

* Wind chill readings... as low as 7 below.

* Impacts... travel may be difficult at times. Visibilities will
be limited at times.

Precautionary/preparedness actions...

A Winter Weather Advisory for snow means that periods of snow
will cause primarily travel difficulties. Be prepared for snow
covered roads and limited visibilities... and use caution while
driving.

With the colder weather... have your vehicle equipped with
emergency supplies.